Latest Weather Observations for Cummins Airport

IDS60801

Issued at 9:51 pm CST Thursday 24 September 2020 (issued every 10 minutes, with the page automatically refreshed every 10 minutes)

About weather observations | Map of weather stations | Latest weather observations for SA | Other Formats
Station Details ID: 018217 Name: CUMMINS AERO Lat: -34.25 Lon: 135.71 Height: 60.11 m
Data from the previous 72 hours. | See also: Recent months at Cummins Airport
Date/Time
CST
Temp
°C
App
Temp
°C
Dew
Point
°C
Rel
Hum
%
Delta-T
°C
Wind Press
QNH
hPa
Press
MSL
hPa
Rain since
9am
mm
Dir  Spd
km/h
Gust
km/h
Spd
kts
Gust
kts
24/09:30pm 6.6 4.1 6.6 100 0.0 WSW 9 13 5 7 1012.1 1012.1 7.4
24/09:00pm 7.6 4.2 7.5 99 0.0 W 15 19 8 10 1012.2 1012.2 7.4
24/08:30pm 7.9 4.2 7.9 100 0.0 WNW 17 26 9 14 1012.4 1012.4 7.2
24/08:00pm 7.5 5.6 7.4 99 0.0 W 7 9 4 5 1012.2 1012.2 6.6
24/07:30pm 7.7 4.5 6.8 94 0.4 W 13 17 7 9 1012.0 1012.0 6.6
24/07:00pm 8.0 3.6 7.4 96 0.3 WSW 20 28 11 15 1012.5 1012.5 6.6
24/06:30pm 8.3 6.1 7.9 97 0.2 W 9 13 5 7 1012.2 1012.2 6.2
24/06:00pm 8.8 4.2 8.0 95 0.4 W 22 35 12 19 1012.3 1012.3 6.2
24/05:30pm 9.4 5.3 8.8 96 0.3 WSW 20 30 11 16 1012.3 1012.3 6.0
24/05:00pm 10.0 5.7 9.5 97 0.3 WSW 22 30 12 16 1012.2 1012.2 6.0
24/04:30pm 9.7 5.1 9.6 99 0.1 SW 24 33 13 18 1012.2 1012.2 6.0
24/04:00pm 9.7 3.9 9.6 99 0.1 WSW 30 61 16 33 1012.5 1012.5 6.0
24/03:51pm 9.7 3.0 7.3 85 1.1 WSW 32 61 17 33 1012.8 1012.8 5.2
24/03:30pm 11.9 5.2 8.0 77 1.9 W 33 43 18 23 1012.3 1012.3 4.6
24/03:00pm 12.6 5.8 7.9 73 2.3 WSW 33 52 18 28 1012.5 1012.5 4.6
24/02:30pm 12.2 4.7 7.9 75 2.1 WSW 37 54 20 29 1012.8 1012.8 4.6
24/02:00pm 12.2 5.2 9.9 86 1.2 WSW 37 56 20 30 1013.4 1013.4 4.6
24/01:30pm 13.9 6.2 8.5 70 2.7 W 39 54 21 29 1013.4 1013.4 4.6
24/01:00pm 12.9 6.1 9.2 78 1.9 WSW 35 48 19 26 1013.8 1013.8 4.6
24/12:36pm 12.3 7.0 9.9 85 1.2 W 28 48 15 26 1014.0 1014.0 4.6
24/12:30pm 12.3 7.1 10.4 88 1.0 W 28 39 15 21 1014.1 1014.1 4.6
24/12:00pm 11.5 7.4 11.5 100 0.0 W 24 35 13 19 1014.6 1014.6 4.6
24/11:30am 11.4 8.0 11.4 100 0.0 W 20 30 11 16 1014.9 1014.9 3.6
24/11:00am 11.3 4.3 11.3 100 0.0 WNW 39 57 21 31 1015.2 1015.2 1.0
24/10:48am 12.2 6.7 10.4 89 0.9 WNW 30 48 16 26 1015.1 1015.1 0.2
24/10:30am 12.7 9.1 11.8 94 0.5 NW 22 35 12 19 1015.3 1015.3 0.0
24/10:05am 12.6 6.8 7.9 73 2.3 WNW 28 56 15 30 1016.0 1016.0 0.0
24/10:00am 13.5 8.2 8.6 72 2.5 WNW 26 39 14 21 1016.0 1016.0 0.0
24/09:30am 13.2 8.0 8.7 74 2.3 WNW 26 43 14 23 1016.5 1016.5 0.0
24/09:00am 13.2 10.1 11.6 90 0.9 NW 19 28 10 15 1016.7 1016.7 1.0
24/08:30am 12.2 9.3 12.2 100 0.0 WNW 19 26 10 14 1017.4 1017.4 1.0
24/08:00am 10.1 7.7 10.1 100 0.0 NW 13 20 7 11 1017.6 1017.6 1.0
24/07:30am 9.1 6.4 9.1 100 0.0 NNW 13 17 7 9 1018.0 1018.0 1.0
24/07:00am 7.6 4.2 7.6 100 0.0 NNW 15 17 8 9 1018.1 1018.1 1.0
24/06:30am 5.7 2.6 5.7 100 0.0 NNW 11 13 6 7 1018.0 1018.0 1.0
24/06:00am 4.4 1.5 4.4 100 0.0 NNE 9 11 5 6 1018.1 1018.1 1.0
24/05:30am 4.8 2.3 4.8 100 0.0 NNE 7 9 4 5 1018.1 1018.1 1.0
24/05:00am 5.5 3.2 5.5 100 0.0 NE 7 9 4 5 1018.0 1018.0 1.0
24/04:30am 5.2 2.8 5.2 100 0.0 NNE 7 9 4 5 1018.3 1018.3 1.0
24/04:00am 4.9 2.0 4.9 100 0.0 NNE 9 11 5 6 1018.6 1018.6 1.0
24/03:30am 6.2 4.0 6.2 100 0.0 N 7 9 4 5 1018.9 1018.9 1.0
24/03:00am 8.0 6.2 8.0 100 0.0 WNW 7 9 4 5 1019.4 1019.4 1.0
24/02:30am 7.7 5.1 7.7 100 0.0 NW 11 13 6 7 1019.8 1019.8 0.6
24/02:00am 8.1 6.0 8.1 100 0.0 WSW 9 11 5 6 1019.9 1019.9 0.4
24/01:30am 7.3 4.2 7.3 100 0.0 W 13 22 7 12 1020.7 1020.7 0.4
24/01:00am 4.9 3.8 4.9 100 0.0 CALM 0 0 0 0 1020.7 1020.7 0.4
24/12:30am 5.8 3.5 5.8 100 0.0 N 7 11 4 6 1021.1 1021.1 0.4
24/12:00am 6.9 6.2 6.9 100 0.0 CALM 0 0 0 0 1021.3 1021.3 0.4
 
Date/Time
CST
Temp
°C
App
Temp
°C
Dew
Point
°C
Rel
Hum
%
Delta-T
°C
Wind Press
QNH
hPa
Press
MSL
hPa
Rain since
9am
mm
Dir  Spd
km/h
Gust
km/h
Spd
kts
Gust
kts
23/11:30pm 7.4 5.5 7.4 100 0.0 ESE 7 11 4 6 1021.6 1021.6 0.4
23/11:00pm 7.1 6.4 7.1 100 0.0 CALM 0 0 0 0 1021.9 1021.9 0.4
23/10:30pm 7.9 7.4 7.9 100 0.0 CALM 0 0 0 0 1022.2 1022.2 0.4
23/10:00pm 7.8 6.2 7.8 100 0.0 SW 6 7 3 4 1022.4 1022.4 0.4
23/09:30pm 8.1 6.3 8.1 100 0.0 NW 7 9 4 5 1022.5 1022.5 0.4
23/09:00pm 7.8 5.9 7.7 99 0.0 NNW 7 7 4 4 1022.6 1022.6 0.4
23/08:30pm 9.2 7.3 9.1 99 0.0 WSW 9 9 5 5 1022.6 1022.6 0.4
23/08:00pm 9.7 7.6 9.6 99 0.1 SW 11 15 6 8 1022.6 1022.6 0.2
23/07:30pm 10.1 8.5 10.1 100 0.0 WSW 9 13 5 7 1022.6 1022.6 0.2
23/07:00pm 10.5 9.5 10.3 99 0.1 SW 6 7 3 4 1022.4 1022.4 0.2
23/06:30pm 11.1 9.2 10.5 96 0.3 SW 11 15 6 8 1022.3 1022.3 0.2
23/06:00pm 11.6 8.9 9.0 84 1.3 WSW 13 19 7 10 1022.0 1022.0 0.2
23/05:30pm 12.6 8.5 8.7 77 1.9 WSW 20 28 11 15 1021.9 1021.9 0.2
23/05:00pm 13.1 8.9 9.7 80 1.7 WSW 22 33 12 18 1021.8 1021.8 0.2
23/04:30pm 12.7 8.4 10.8 88 1.0 SW 24 33 13 18 1021.6 1021.6 0.2
23/04:00pm 11.8 8.4 11.2 96 0.3 SW 20 33 11 18 1021.6 1021.6 0.2
23/03:30pm 11.2 5.7 10.6 96 0.3 WSW 30 39 16 21 1021.7 1021.7 0.2
23/03:00pm 12.8 7.0 9.3 79 1.8 SW 30 37 16 20 1021.4 1021.4 0.0
23/02:30pm 14.5 7.8 9.5 72 2.6 W 35 50 19 27 1021.2 1021.2 0.0
23/02:00pm 13.0 6.8 9.3 78 1.9 SW 32 46 17 25 1021.6 1021.6 0.0
23/01:30pm 13.6 7.0 8.7 72 2.5 WSW 33 46 18 25 1021.6 1021.6 0.0
23/01:00pm 13.8 8.8 11.0 83 1.5 WSW 28 41 15 22 1021.8 1021.8 0.0
23/12:30pm 14.3 8.8 9.3 72 2.6 SW 28 37 15 20 1021.9 1021.9 0.0
23/12:00pm 14.6 7.9 8.1 65 3.2 WSW 33 48 18 26 1021.8 1021.8 0.0
23/11:30am 15.0 7.9 6.6 57 4.1 W 33 43 18 23 1021.8 1021.8 0.0
23/11:01am 15.1 8.4 8.1 63 3.5 W 33 52 18 28 1021.7 1021.7 0.0
23/11:00am 15.3 9.0 8.8 65 3.3 WSW 32 44 17 24 1021.8 1021.8 0.0
23/10:30am 14.6 8.7 9.2 70 2.8 WSW 30 37 16 20 1022.0 1022.0 0.0
23/10:00am 13.1 6.7 8.4 73 2.3 WSW 32 39 17 21 1022.0 1022.0 0.0
23/09:30am 13.2 9.4 11.3 88 1.0 SW 22 32 12 17 1021.9 1021.9 0.0
23/09:00am 11.8 8.5 11.5 98 0.2 WSW 20 28 11 15 1021.8 1021.8 0.4
23/08:48am 11.2 6.1 10.7 97 0.3 WSW 28 44 15 24 1021.7 1021.7 0.4
23/08:30am 11.2 8.7 11.2 100 0.0 WSW 15 20 8 11 1021.5 1021.5 0.4
23/08:00am 10.3 7.6 10.3 100 0.0 W 15 19 8 10 1021.3 1021.3 0.4
23/07:30am 9.3 6.7 9.3 100 0.0 W 13 15 7 8 1021.0 1021.0 0.4
23/07:00am 8.2 5.3 8.2 100 0.0 W 13 15 7 8 1020.6 1020.6 0.4
23/06:30am 7.2 4.8 7.2 100 0.0 WSW 9 13 5 7 1020.3 1020.3 0.4
23/06:00am 3.4 1.2 3.4 100 0.0 WNW 4 7 2 4 1020.0 1020.0 0.4
23/05:30am 4.7 3.1 4.7 100 0.0 NW 2 6 1 3 1019.6 1019.6 0.4
23/05:00am 6.4 3.9 6.4 100 0.0 W 9 11 5 6 1019.3 1019.3 0.4
23/04:30am 7.1 4.7 7.1 100 0.0 W 9 11 5 6 1019.2 1019.2 0.4
23/04:00am 8.0 5.8 8.0 100 0.0 WNW 9 11 5 6 1019.1 1019.1 0.2
23/03:30am 9.2 5.2 9.2 100 0.0 WSW 20 28 11 15 1018.9 1018.9 0.2
23/03:00am 7.1 4.7 7.1 100 0.0 W 9 13 5 7 1019.1 1019.1 0.0
23/02:30am 6.6 3.7 6.6 100 0.0 WNW 11 13 6 7 1019.0 1019.0 0.0
23/02:00am 3.5 1.5 2.3 92 0.5 WNW 2 6 1 3 1019.1 1019.1 0.0
23/01:30am 5.7 2.7 4.0 89 0.7 WNW 9 9 5 5 1019.1 1019.1 0.0
23/01:00am 7.3 4.1 5.3 87 0.9 WNW 11 13 6 7 1019.2 1019.2 0.0
23/12:30am 7.4 4.3 5.7 89 0.8 WNW 11 13 6 7 1019.2 1019.2 0.0
23/12:00am 7.3 5.1 6.1 92 0.5 WNW 7 11 4 6 1019.3 1019.3 0.0
 
Date/Time
CST
Temp
°C
App
Temp
°C
Dew
Point
°C
Rel
Hum
%
Delta-T
°C
Wind Press
QNH
hPa
Press
MSL
hPa
Rain since
9am
mm
Dir  Spd
km/h
Gust
km/h
Spd
kts
Gust
kts
22/11:30pm 7.3 4.0 6.4 94 0.4 W 13 13 7 7 1019.3 1019.3 0.0
22/11:00pm 7.8 4.5 6.3 90 0.7 W 13 15 7 8 1019.3 1019.3 0.0
22/10:30pm 8.0 4.8 6.8 92 0.6 W 13 17 7 9 1019.2 1019.2 0.0
22/10:00pm 9.3 7.0 7.4 88 0.9 WNW 9 13 5 7 1019.2 1019.2 0.0
22/09:30pm 8.9 6.6 7.4 90 0.7 WNW 9 9 5 5 1019.1 1019.1 0.0
22/09:00pm 9.3 6.5 6.9 85 1.1 WNW 11 15 6 8 1018.9 1018.9 0.0
22/08:30pm 9.1 5.4 6.4 83 1.2 WNW 15 17 8 9 1018.8 1018.8 0.0
22/08:00pm 9.8 6.5 6.5 80 1.5 WNW 13 15 7 8 1018.5 1018.5 0.0
22/07:30pm 10.5 6.5 6.6 77 1.8 WNW 17 20 9 11 1018.1 1018.1 0.0
22/07:00pm 11.1 6.8 7.2 77 1.9 W 19 26 10 14 1017.7 1017.7 0.0
22/06:30pm 11.8 7.8 6.5 70 2.5 W 17 24 9 13 1017.4 1017.4 0.0
22/06:00pm 12.3 5.1 5.2 62 3.3 W 32 43 17 23 1017.1 1017.1 0.0
22/05:30pm 13.2 6.8 5.4 59 3.6 W 28 43 15 23 1016.7 1016.7 0.0
22/05:00pm 13.4 6.9 6.5 63 3.3 W 30 43 16 23 1016.3 1016.3 0.0
22/04:30pm 15.4 8.4 6.2 54 4.5 W 32 43 17 23 1015.9 1015.9 0.0
22/04:00pm 14.9 7.8 7.9 63 3.5 W 35 50 19 27 1015.8 1015.8 0.0
22/03:40pm 14.7 7.8 7.3 61 3.7 W 33 52 18 28 1015.6 1015.6 0.0
22/03:30pm 14.7 8.1 8.4 66 3.2 W 33 50 18 27 1015.6 1015.6 0.0
22/03:00pm 14.7 7.0 7.3 61 3.6 W 37 48 20 26 1015.5 1015.5 0.0
22/02:30pm 14.3 7.6 9.5 73 2.5 W 35 52 19 28 1015.5 1015.5 0.0
22/02:00pm 14.8 6.5 7.6 62 3.6 WNW 41 52 22 28 1015.3 1015.3 0.0
22/01:30pm 15.2 7.7 8.0 62 3.6 WNW 37 50 20 27 1015.1 1015.1 0.0
22/01:00pm 15.3 8.8 9.0 66 3.2 WNW 33 44 18 24 1015.0 1015.0 0.0
22/12:45pm 13.6 6.4 10.4 81 1.7 WNW 39 57 21 31 1015.2 1015.2 0.0
22/12:30pm 15.5 8.4 9.6 68 3.1 W 37 48 20 26 1015.0 1015.0 0.0
22/12:00pm 15.1 7.4 8.8 66 3.2 W 39 52 21 28 1014.9 1014.9 0.0
22/11:30am 15.2 7.4 8.4 64 3.4 W 39 50 21 27 1014.8 1014.8 0.0
22/11:11am 14.3 7.3 8.5 68 2.9 W 35 54 19 29 1014.9 1014.9 0.0
22/11:00am 15.4 7.9 9.3 67 3.1 W 39 54 21 29 1014.9 1014.9 0.0
22/10:30am 13.8 6.4 8.2 69 2.8 W 37 48 20 26 1014.7 1014.7 0.0
22/10:00am 14.4 6.5 7.7 64 3.3 W 39 48 21 26 1014.5 1014.5 0.0
22/09:30am 13.1 6.2 9.0 76 2.1 W 35 50 19 27 1014.4 1014.4 0.0
22/09:00am 12.9 7.5 8.0 72 2.4 W 26 35 14 19 1014.1 1014.1 3.4
22/08:46am 12.9 6.0 6.3 64 3.1 WNW 32 52 17 28 1013.9 1013.9 3.4
22/08:30am 12.8 6.5 7.3 69 2.7 W 30 43 16 23 1013.7 1013.7 3.4
22/08:00am 12.4 6.7 6.9 69 2.6 WNW 26 35 14 19 1013.1 1013.1 3.4
22/07:30am 11.9 6.2 6.6 70 2.5 WNW 26 35 14 19 1012.6 1012.6 3.4
22/07:00am 11.3 5.9 6.4 72 2.3 WNW 24 35 13 19 1012.1 1012.1 3.4
22/06:30am 10.2 5.6 6.5 78 1.7 WNW 20 26 11 14 1012.0 1012.0 3.4
22/06:00am 10.1 5.7 7.5 84 1.2 W 20 26 11 14 1011.4 1011.4 3.4
22/05:30am 10.5 6.5 9.1 91 0.7 W 20 26 11 14 1010.8 1010.9 3.4
22/05:00am 10.7 6.5 8.3 85 1.2 W 20 28 11 15 1010.5 1010.5 3.4
22/04:30am 10.6 6.3 9.5 93 0.6 W 22 30 12 16 1010.1 1010.1 3.4
22/04:00am 10.8 6.5 9.2 90 0.8 W 22 33 12 18 1009.9 1009.9 3.4
22/03:30am 10.4 6.7 9.6 95 0.4 WNW 19 26 10 14 1009.9 1009.9 3.4
22/03:00am 10.8 5.8 10.8 100 0.0 W 28 37 15 20 1009.8 1009.8 3.4
22/02:30am 10.8 4.9 10.5 98 0.2 W 32 44 17 24 1009.8 1009.8 3.4
22/02:17am 10.9 5.0 10.4 97 0.3 W 32 50 17 27 1009.9 1009.9 3.4
22/02:00am 11.2 6.0 10.1 93 0.6 WNW 28 35 15 19 1009.9 1009.9 2.8
22/01:30am 11.0 5.8 10.1 94 0.5 WNW 28 39 15 21 1009.7 1009.7 2.8
22/01:00am 11.2 6.2 11.0 99 0.1 W 28 35 15 19 1009.9 1009.9 2.8
22/12:36am 11.0 5.2 9.4 90 0.8 WNW 30 48 16 26 1010.0 1010.0 2.8
22/12:30am 11.5 5.1 9.4 87 1.1 WNW 33 48 18 26 1010.1 1010.1 2.8
22/12:00am 11.3 7.0 9.2 87 1.1 WNW 22 32 12 17 1009.9 1009.9 2.8
 
Date/Time
CST
Temp
°C
App
Temp
°C
Dew
Point
°C
Rel
Hum
%
Delta-T
°C
Wind Press
QNH
hPa
Press
MSL
hPa
Rain since
9am
mm
Dir  Spd
km/h
Gust
km/h
Spd
kts
Gust
kts
21/11:30pm 11.2 7.5 10.1 93 0.6 WNW 20 37 11 20 1010.0 1010.0 2.8
21/11:00pm 10.9 6.5 10.4 97 0.3 WNW 24 32 13 17 1009.9 1009.9 2.8
21/10:31pm 10.8 4.6 10.0 95 0.4 WNW 33 52 18 28 1010.0 1010.0 2.8
21/10:30pm 10.7 4.1 10.1 96 0.3 WNW 35 52 19 28 1010.1 1010.1 2.8
21/10:24pm 11.1 6.0 10.5 96 0.3 WNW 28 50 15 27 1010.1 1010.1 2.8
21/10:00pm 11.4 7.2 8.4 82 1.5 WNW 20 30 11 16 1009.9 1009.9 2.2

Other formats

Comma delimited format used in spreadsheet applications
http://www.bom.gov.au/fwo/IDS60801/IDS60801.95663.axf

JavaScript Object Notation format (JSON) in row-major order
http://www.bom.gov.au/fwo/IDS60801/IDS60801.95663.json

Data quality

Most of these data are generated automatically and are frequently updated. Quality checks on data are not normally performed. It is possible for incorrect values to appear. Refer to information at About Latest Weather Observations and please check the disclaimer before using these data.